createdAt,value
2019-01-23T00:00:32.244Z,0.00
2019-01-23T00:01:31.966Z,0.00
2019-01-23T00:02:31.938Z,0.00
2019-01-23T00:03:32.243Z,0.00
2019-01-23T00:04:31.946Z,0.00
2019-01-23T00:05:31.878Z,0.00
2019-01-23T00:06:31.842Z,0.00
2019-01-23T00:07:31.792Z,0.00
2019-01-23T00:08:31.817Z,0.00
2019-01-23T00:09:31.731Z,0.00
2019-01-23T00:10:31.703Z,0.00
2019-01-23T00:11:31.685Z,0.00
2019-01-23T00:13:59.807Z,0.00
2019-01-23T00:14:54.737Z,0.00
2019-01-23T00:17:17.706Z,0.00
2019-01-23T00:18:17.759Z,0.00
2019-01-23T00:19:17.654Z,0.00
2019-01-23T00:20:17.630Z,0.00
2019-01-23T00:22:50.739Z,0.00
2019-01-23T00:23:40.588Z,0.00
2019-01-23T00:24:40.531Z,0.00
2019-01-23T00:25:40.522Z,0.00
2019-01-23T00:26:40.605Z,0.00
2019-01-23T00:27:40.471Z,0.00
2019-01-23T00:28:42.404Z,0.00
2019-01-23T00:29:40.412Z,0.00
2019-01-23T00:30:40.395Z,0.00
2019-01-23T00:31:40.329Z,0.00
2019-01-23T00:32:40.298Z,0.00
2019-01-23T00:35:03.337Z,0.00
2019-01-23T00:36:03.271Z,0.00
2019-01-23T00:37:03.239Z,0.00
2019-01-23T00:38:03.273Z,0.00
2019-01-23T00:39:03.193Z,0.00
2019-01-23T00:40:03.157Z,0.00
2019-01-23T00:41:03.119Z,0.00
2019-01-23T00:42:03.074Z,0.00
2019-01-23T00:43:03.051Z,0.00
2019-01-23T00:44:03.047Z,0.00
2019-01-23T00:45:03.017Z,0.00
2019-01-23T00:46:02.990Z,0.00
2019-01-23T00:47:02.954Z,0.00
2019-01-23T00:48:02.920Z,0.00
2019-01-23T00:49:02.866Z,0.00
2019-01-23T00:50:02.840Z,0.00
2019-01-23T00:51:02.809Z,0.00
2019-01-23T00:52:02.789Z,0.00
2019-01-23T00:53:02.791Z,0.00
2019-01-23T00:54:02.734Z,0.00
2019-01-23T00:55:02.748Z,0.00
2019-01-23T00:56:02.656Z,0.00
2019-01-23T00:57:02.626Z,0.00
2019-01-23T00:58:02.648Z,0.00
2019-01-23T00:59:02.589Z,0.00
2019-01-23T01:01:25.677Z,0.00
2019-01-23T01:02:25.955Z,0.00
2019-01-23T01:03:25.548Z,0.00
2019-01-23T01:05:48.525Z,0.00
2019-01-23T01:06:48.507Z,0.00
2019-01-23T01:07:48.459Z,0.00
2019-01-23T01:08:48.425Z,0.00
2019-01-23T01:09:48.395Z,0.00
2019-01-23T01:10:48.503Z,0.00
2019-01-23T01:11:48.338Z,0.00
2019-01-23T01:14:10.340Z,0.00
2019-01-23T01:15:13.384Z,0.00
2019-01-23T01:16:10.248Z,0.00
2019-01-23T01:17:10.315Z,0.00
2019-01-23T01:18:10.260Z,0.00
2019-01-23T01:19:10.206Z,0.00
2019-01-23T01:20:10.138Z,0.00
2019-01-23T01:21:10.113Z,0.00
2019-01-23T01:22:10.070Z,0.00
2019-01-23T01:24:44.228Z,0.00
2019-01-23T01:25:34.385Z,0.00
2019-01-23T01:26:34.156Z,0.00
2019-01-23T01:27:33.987Z,0.00
2019-01-23T01:28:33.994Z,0.00
2019-01-23T01:29:33.976Z,0.00
2019-01-23T01:30:33.925Z,0.00
2019-01-23T01:31:33.852Z,0.00
2019-01-23T01:32:33.850Z,0.00
2019-01-23T01:34:56.922Z,0.00
2019-01-23T01:35:56.800Z,0.00
2019-01-23T01:36:56.757Z,0.00
2019-01-23T01:37:56.730Z,0.00
2019-01-23T01:38:56.785Z,0.00
2019-01-23T01:39:56.812Z,0.00
2019-01-23T01:40:56.658Z,0.00
2019-01-23T01:41:56.622Z,0.00
2019-01-23T01:42:56.609Z,0.00
2019-01-23T01:43:56.541Z,0.00
2019-01-23T01:44:56.559Z,0.00
2019-01-23T01:45:56.481Z,0.00
2019-01-23T01:46:56.468Z,0.00
2019-01-23T01:47:56.441Z,0.00
2019-01-23T01:48:56.407Z,0.00
2019-01-23T01:49:56.408Z,0.00
2019-01-23T01:50:56.374Z,0.00
2019-01-23T01:51:56.348Z,0.00
2019-01-23T01:52:56.280Z,0.00
2019-01-23T01:53:56.273Z,0.00
2019-01-23T01:54:56.229Z,0.00
2019-01-23T01:55:56.190Z,0.00
2019-01-23T01:56:56.170Z,0.00
2019-01-23T01:57:56.142Z,0.00
2019-01-23T01:59:02.600Z,0.00
2019-01-23T01:59:56.121Z,0.00
2019-01-23T02:00:56.047Z,0.00
2019-01-23T02:01:56.041Z,0.00
2019-01-23T02:02:55.985Z,0.00
2019-01-23T02:03:55.958Z,0.00
2019-01-23T02:04:55.988Z,0.00
2019-01-23T02:05:55.906Z,0.00
2019-01-23T02:06:55.870Z,0.00
2019-01-23T02:07:55.865Z,0.00
2019-01-23T02:08:55.840Z,0.00
2019-01-23T02:09:55.786Z,0.00
2019-01-23T02:10:55.833Z,0.00
2019-01-23T02:11:55.743Z,0.00
2019-01-23T02:12:55.753Z,0.00
2019-01-23T02:13:55.701Z,0.00
2019-01-23T02:14:55.634Z,0.00
2019-01-23T02:15:55.619Z,0.00
2019-01-23T02:16:55.599Z,0.00
2019-01-23T02:17:55.612Z,0.00
2019-01-23T02:18:55.560Z,0.00
2019-01-23T02:19:55.489Z,0.00
2019-01-23T02:20:55.464Z,0.00
2019-01-23T02:21:55.486Z,0.00
2019-01-23T02:22:55.480Z,0.00
2019-01-23T02:23:55.386Z,0.00
2019-01-23T02:24:55.381Z,0.00
2019-01-23T02:25:55.311Z,0.00
2019-01-23T02:28:28.460Z,0.00
2019-01-23T02:29:18.748Z,0.00
2019-01-23T02:30:18.286Z,0.00
2019-01-23T02:31:18.315Z,0.00
2019-01-23T02:32:18.216Z,0.00
2019-01-23T02:33:18.165Z,0.00
2019-01-23T02:34:18.123Z,0.00
2019-01-23T02:35:18.111Z,0.00
2019-01-23T02:36:18.089Z,0.00
2019-01-23T02:37:18.076Z,0.00
2019-01-23T02:38:18.008Z,0.00
2019-01-23T02:39:18.059Z,0.00
2019-01-23T02:40:17.963Z,0.00
2019-01-23T02:41:17.978Z,0.00
2019-01-23T02:42:17.916Z,0.00
2019-01-23T02:43:17.900Z,0.00
2019-01-23T02:44:17.852Z,0.00
2019-01-23T02:45:17.840Z,0.00
2019-01-23T02:46:17.825Z,0.00
2019-01-23T02:47:17.773Z,0.00
2019-01-23T02:48:17.768Z,0.00
2019-01-23T02:49:17.693Z,0.00
2019-01-23T02:50:17.725Z,0.00
2019-01-23T02:51:17.634Z,0.00
2019-01-23T02:52:17.655Z,0.00
2019-01-23T02:54:40.825Z,0.00
2019-01-23T02:55:40.576Z,0.00
2019-01-23T02:58:03.600Z,0.00
2019-01-23T02:59:03.567Z,0.00
2019-01-23T03:00:03.488Z,0.00
2019-01-23T03:01:03.610Z,0.00
2019-01-23T03:02:03.459Z,0.00
2019-01-23T03:03:03.599Z,0.00
2019-01-23T03:05:26.457Z,0.00
2019-01-23T03:06:26.378Z,0.00
2019-01-23T03:07:26.353Z,0.00
2019-01-23T03:08:26.316Z,0.00
2019-01-23T03:09:26.437Z,0.00
2019-01-23T03:10:26.228Z,0.00
2019-01-23T03:11:26.225Z,0.00
2019-01-23T03:12:26.217Z,0.00
2019-01-23T03:13:26.172Z,0.00
2019-01-23T03:14:26.136Z,0.00
2019-01-23T03:15:26.151Z,0.00
2019-01-23T03:16:26.067Z,0.00
2019-01-23T03:17:26.061Z,0.00
2019-01-23T03:18:26.053Z,0.00
2019-01-23T03:19:25.997Z,0.00
2019-01-23T03:20:25.953Z,0.00
2019-01-23T03:21:25.934Z,0.00
2019-01-23T03:22:25.892Z,0.00
2019-01-23T03:23:25.891Z,0.00
2019-01-23T03:24:25.828Z,0.00
2019-01-23T03:25:25.800Z,0.00
2019-01-23T03:26:25.762Z,0.00
2019-01-23T03:27:25.789Z,0.00
2019-01-23T03:28:25.719Z,0.00
2019-01-23T03:29:25.724Z,0.00
2019-01-23T03:30:25.754Z,0.00
2019-01-23T03:31:25.649Z,0.00
2019-01-23T03:32:25.654Z,0.00
2019-01-23T03:34:48.644Z,0.00
2019-01-23T03:35:48.607Z,0.00
2019-01-23T03:36:48.733Z,0.00
2019-01-23T03:37:48.548Z,0.00
2019-01-23T03:38:48.846Z,0.00
2019-01-23T03:39:48.503Z,0.00
2019-01-23T03:40:48.478Z,0.00
2019-01-23T03:41:48.418Z,0.00
2019-01-23T03:42:48.388Z,0.00
2019-01-23T03:43:48.343Z,0.00
2019-01-23T03:44:48.331Z,0.00
2019-01-23T03:45:48.296Z,0.00
2019-01-23T03:46:48.288Z,0.00
2019-01-23T03:47:48.262Z,0.00
2019-01-23T03:48:48.259Z,0.00
2019-01-23T03:51:11.255Z,0.00
2019-01-23T03:52:11.200Z,0.00
2019-01-23T03:53:11.150Z,0.00
2019-01-23T03:54:11.188Z,0.00
2019-01-23T03:55:11.103Z,0.00
2019-01-23T03:56:11.092Z,0.00
2019-01-23T03:57:11.042Z,0.00
2019-01-23T03:58:11.002Z,0.00
2019-01-23T03:59:10.989Z,0.00
2019-01-23T04:00:10.977Z,0.00
2019-01-23T04:01:10.972Z,0.00
2019-01-23T04:02:10.882Z,0.00
2019-01-23T04:03:10.888Z,0.00
2019-01-23T04:04:10.879Z,0.00
2019-01-23T04:05:10.812Z,0.00
2019-01-23T04:06:10.804Z,0.00
2019-01-23T04:07:10.766Z,0.00
2019-01-23T04:08:10.730Z,0.00
2019-01-23T04:09:10.698Z,0.00
2019-01-23T04:10:10.683Z,0.00
2019-01-23T04:11:10.647Z,0.00
2019-01-23T04:12:10.637Z,0.00
2019-01-23T04:13:10.569Z,0.00
2019-01-23T04:14:10.576Z,0.00
2019-01-23T04:15:10.559Z,0.00
2019-01-23T04:16:10.478Z,0.00
2019-01-23T04:17:10.478Z,0.00
2019-01-23T04:18:10.434Z,0.00
2019-01-23T04:19:10.391Z,0.00
2019-01-23T04:21:33.503Z,0.00
2019-01-23T04:23:56.403Z,0.00
2019-01-23T04:24:56.676Z,0.00
2019-01-23T04:25:56.332Z,0.00
2019-01-23T04:26:56.401Z,0.00
2019-01-23T04:27:56.325Z,0.00
2019-01-23T04:28:56.250Z,0.00
2019-01-23T04:29:56.201Z,0.00
2019-01-23T04:30:56.165Z,0.00
2019-01-23T04:31:56.137Z,0.00
2019-01-23T04:32:56.133Z,0.00
2019-01-23T04:33:56.165Z,0.00
2019-01-23T04:36:19.244Z,0.00
2019-01-23T04:37:19.106Z,0.00
2019-01-23T04:38:19.046Z,0.00
2019-01-23T04:39:19.027Z,0.00
2019-01-23T04:40:19.006Z,0.00
2019-01-23T04:41:18.996Z,0.00
2019-01-23T04:42:18.910Z,0.00
2019-01-23T04:43:18.886Z,0.00
2019-01-23T04:44:18.916Z,0.00
2019-01-23T04:45:18.833Z,0.00
2019-01-23T04:46:18.829Z,0.00
2019-01-23T04:47:18.770Z,0.00
2019-01-23T04:48:18.761Z,0.00
2019-01-23T04:49:18.747Z,0.00
2019-01-23T04:50:18.735Z,0.00
2019-01-23T04:52:41.790Z,0.00
2019-01-23T04:53:41.650Z,0.00
2019-01-23T04:54:41.762Z,0.00
2019-01-23T04:55:41.604Z,0.00
2019-01-23T04:58:04.635Z,0.00
2019-01-23T04:59:05.023Z,0.00
2019-01-23T05:00:04.548Z,0.00
2019-01-23T05:01:04.481Z,0.00
2019-01-23T05:02:04.494Z,0.00
2019-01-23T05:03:04.425Z,0.00
2019-01-23T05:04:04.512Z,0.00
2019-01-23T05:05:04.362Z,0.00
2019-01-23T05:06:04.346Z,0.00
2019-01-23T05:07:04.309Z,0.00
2019-01-23T05:08:04.341Z,0.00
2019-01-23T05:09:04.255Z,0.00
2019-01-23T05:10:04.231Z,0.00
2019-01-23T05:11:04.194Z,0.00
2019-01-23T05:12:04.195Z,0.00
2019-01-23T05:13:04.156Z,0.00
2019-01-23T05:14:04.102Z,0.00
2019-01-23T05:15:04.101Z,0.00
2019-01-23T05:16:04.073Z,0.00
2019-01-23T05:17:04.078Z,0.00
2019-01-23T05:18:03.994Z,0.00
2019-01-23T05:19:04.025Z,0.00
2019-01-23T05:20:03.950Z,0.00
2019-01-23T05:21:03.926Z,0.00
2019-01-23T05:22:03.910Z,0.00
2019-01-23T05:23:03.849Z,0.00
2019-01-23T05:24:03.877Z,0.00
2019-01-23T05:25:03.817Z,0.00
2019-01-23T05:26:03.798Z,0.00
2019-01-23T05:27:03.746Z,0.00
2019-01-23T05:28:03.709Z,0.00
2019-01-23T05:29:03.684Z,0.00
2019-01-23T05:30:03.643Z,0.00
2019-01-23T05:32:26.888Z,0.00
2019-01-23T05:33:27.056Z,0.00
2019-01-23T05:34:26.693Z,0.00
2019-01-23T05:35:26.587Z,0.00
2019-01-23T05:36:26.687Z,0.00
2019-01-23T05:38:49.898Z,0.00
2019-01-23T05:39:49.690Z,0.00
2019-01-23T05:40:49.467Z,0.00
2019-01-23T05:41:49.455Z,0.00
2019-01-23T05:42:49.392Z,0.00
2019-01-23T05:43:49.347Z,0.00
2019-01-23T05:44:49.330Z,0.00
2019-01-23T05:45:49.314Z,0.00
2019-01-23T05:46:49.314Z,0.00
2019-01-23T05:47:49.244Z,0.00
2019-01-23T05:48:49.235Z,0.00
2019-01-23T05:49:49.213Z,0.00
2019-01-23T05:52:13.496Z,0.00
2019-01-23T05:53:13.189Z,0.00
2019-01-23T05:55:36.220Z,0.00
2019-01-23T05:56:36.191Z,0.00
2019-01-23T05:57:36.152Z,0.00
2019-01-23T05:58:36.059Z,0.00
2019-01-23T05:59:36.082Z,0.00
2019-01-23T06:00:36.028Z,0.00
2019-01-23T06:01:36.003Z,0.00
2019-01-23T06:02:35.936Z,0.00
2019-01-23T06:04:59.081Z,0.00
2019-01-23T06:07:22.066Z,0.00
2019-01-23T06:08:21.905Z,0.00
2019-01-23T06:09:22.751Z,0.00
2019-01-23T06:10:21.900Z,0.00
2019-01-23T06:11:21.853Z,0.00
2019-01-23T06:12:21.802Z,0.00
2019-01-23T06:14:44.875Z,0.00
2019-01-23T06:15:44.739Z,0.00
2019-01-23T06:16:44.725Z,0.00
2019-01-23T06:17:44.702Z,0.00
2019-01-23T06:20:08.999Z,0.00
2019-01-23T06:21:08.658Z,0.00
2019-01-23T06:22:08.614Z,0.00
2019-01-23T06:23:08.619Z,0.00
2019-01-23T06:24:08.538Z,0.00
2019-01-23T06:25:08.748Z,0.00
2019-01-23T06:27:31.582Z,0.00
2019-01-23T06:28:31.539Z,0.00
2019-01-23T06:29:31.479Z,0.00
2019-01-23T06:31:55.483Z,0.00
2019-01-23T06:32:55.408Z,0.00
2019-01-23T06:33:55.458Z,0.00
2019-01-23T06:36:28.764Z,0.00
2019-01-23T06:37:18.829Z,0.00
2019-01-23T06:38:18.331Z,0.00
2019-01-23T06:39:18.294Z,0.00
2019-01-23T06:40:18.250Z,0.00
2019-01-23T06:41:18.232Z,0.00
2019-01-23T06:43:41.351Z,0.00
2019-01-23T06:44:41.173Z,0.00
2019-01-23T06:45:41.149Z,0.00
2019-01-23T06:46:49.953Z,0.00
2019-01-23T06:48:35.489Z,0.00
2019-01-23T06:49:35.503Z,0.00
2019-01-23T06:50:35.628Z,0.00
2019-01-23T06:51:35.485Z,0.00
2019-01-23T06:52:35.476Z,0.00
2019-01-23T06:53:35.331Z,0.00
2019-01-23T06:54:35.317Z,0.00
2019-01-23T06:55:35.254Z,0.00
2019-01-23T06:56:35.246Z,4.00
2019-01-23T06:57:35.239Z,0.00
2019-01-23T06:58:35.153Z,0.00
2019-01-23T06:59:35.134Z,4.00
2019-01-23T07:00:35.098Z,4.00
2019-01-23T07:01:35.078Z,4.00
2019-01-23T07:02:35.074Z,4.00
2019-01-23T07:03:35.030Z,4.00
2019-01-23T07:05:58.039Z,8.00
2019-01-23T07:06:58.107Z,8.00
2019-01-23T07:07:57.943Z,8.00
2019-01-23T07:08:57.958Z,12.00
2019-01-23T07:09:58.039Z,12.00
2019-01-23T07:10:57.879Z,16.00
2019-01-23T07:11:57.828Z,16.00
2019-01-23T07:14:20.928Z,20.00
2019-01-23T07:15:20.822Z,24.00
2019-01-23T07:17:45.189Z,32.00
2019-01-23T07:18:45.925Z,36.00
2019-01-23T07:19:44.728Z,36.00
2019-01-23T07:20:44.719Z,40.00
2019-01-23T07:21:44.709Z,44.00
2019-01-23T07:22:44.635Z,44.00
2019-01-23T07:23:44.659Z,52.00
2019-01-23T07:24:44.629Z,56.00
2019-01-23T07:25:44.560Z,60.00
2019-01-23T07:26:44.537Z,68.00
2019-01-23T07:27:44.483Z,72.00
2019-01-23T07:28:49.152Z,76.00
2019-01-23T07:29:44.458Z,80.00
2019-01-23T07:30:44.456Z,88.00
2019-01-23T07:31:44.374Z,92.00
2019-01-23T07:34:07.563Z,108.00
2019-01-23T07:35:07.413Z,112.00
2019-01-23T07:37:30.938Z,132.00
2019-01-23T07:40:03.567Z,152.00
2019-01-23T07:40:53.747Z,164.00
2019-01-23T07:41:53.395Z,176.00
2019-01-23T07:42:53.293Z,184.00
2019-01-23T07:43:53.253Z,192.00
2019-01-23T07:44:53.193Z,204.00
2019-01-23T07:47:15.288Z,232.00
2019-01-23T07:48:15.202Z,244.00
2019-01-23T07:49:15.176Z,256.00
2019-01-23T07:50:15.114Z,264.00
2019-01-23T07:51:15.095Z,276.00
2019-01-23T07:52:15.102Z,288.00
2019-01-23T07:53:15.059Z,296.00
2019-01-23T07:54:14.989Z,308.00
2019-01-23T07:55:14.981Z,324.00
2019-01-23T07:56:14.999Z,336.00
2019-01-23T07:57:14.897Z,352.00
2019-01-23T07:58:14.908Z,356.00
2019-01-23T07:59:14.824Z,364.00
2019-01-23T08:00:14.824Z,372.00
2019-01-23T08:01:14.810Z,376.00
2019-01-23T08:03:37.927Z,380.00
2019-01-23T08:04:37.736Z,388.00
2019-01-23T08:07:00.851Z,400.00
2019-01-23T08:08:00.699Z,408.00
2019-01-23T08:09:00.947Z,412.00
2019-01-23T08:10:00.696Z,420.00
2019-01-23T08:11:00.655Z,436.00
2019-01-23T08:13:25.699Z,472.00
2019-01-23T08:14:25.355Z,488.00
2019-01-23T08:15:25.336Z,496.00
2019-01-23T08:16:25.332Z,504.00
2019-01-23T08:17:25.259Z,512.00
2019-01-23T08:18:25.313Z,520.00
2019-01-23T08:19:25.209Z,532.00
2019-01-23T08:20:25.170Z,548.00
2019-01-23T08:21:25.149Z,560.00
2019-01-23T08:22:25.096Z,572.00
2019-01-23T08:23:25.116Z,584.00
2019-01-23T08:24:25.038Z,600.00
2019-01-23T08:25:25.042Z,612.00
2019-01-23T08:26:25.036Z,620.00
2019-01-23T08:27:24.979Z,628.00
2019-01-23T08:28:24.991Z,640.00
2019-01-23T08:29:24.941Z,648.00
2019-01-23T08:30:24.869Z,656.00
2019-01-23T08:31:24.874Z,664.00
2019-01-23T08:32:24.826Z,672.00
2019-01-23T08:33:24.780Z,680.00
2019-01-23T08:34:24.779Z,688.00
2019-01-23T08:35:24.745Z,696.00
2019-01-23T08:36:35.685Z,700.00
2019-01-23T08:37:24.745Z,696.00
2019-01-23T08:38:24.734Z,704.00
2019-01-23T08:39:24.829Z,720.00
2019-01-23T08:41:47.792Z,776.00
2019-01-23T08:44:19.689Z,812.00
2019-01-23T08:45:10.120Z,828.00
2019-01-23T08:46:09.588Z,848.00
2019-01-23T08:47:09.688Z,860.00
2019-01-23T08:48:09.540Z,880.00
2019-01-23T08:49:09.491Z,884.00
2019-01-23T08:50:09.429Z,876.00
2019-01-23T08:51:09.402Z,888.00
2019-01-23T08:52:09.379Z,892.00
2019-01-23T08:53:09.348Z,904.00
2019-01-23T08:54:09.330Z,924.00
2019-01-23T08:55:09.287Z,956.00
2019-01-23T08:56:09.271Z,972.00
2019-01-23T08:57:09.254Z,980.00
2019-01-23T08:58:09.206Z,1000.00
2019-01-23T08:59:09.175Z,1024.00
2019-01-23T09:00:09.176Z,1048.00
2019-01-23T09:01:09.125Z,1064.00
2019-01-23T09:02:09.109Z,1068.00
2019-01-23T09:03:09.068Z,1072.00
2019-01-23T09:04:09.053Z,1096.00
2019-01-23T09:05:09.009Z,1116.00
2019-01-23T09:06:08.984Z,1160.00
2019-01-23T09:07:08.971Z,1184.00
2019-01-23T09:08:08.983Z,1180.00
2019-01-23T09:09:08.902Z,1192.00
2019-01-23T09:10:08.902Z,1204.00
2019-01-23T09:11:08.849Z,1248.00
2019-01-23T09:12:08.823Z,1284.00
2019-01-23T09:13:08.843Z,1304.00
2019-01-23T09:14:08.762Z,1332.00
2019-01-23T09:15:08.745Z,1356.00
2019-01-23T09:16:08.723Z,1352.00
2019-01-23T09:17:08.657Z,1352.00
2019-01-23T09:18:08.687Z,1364.00
2019-01-23T09:19:08.606Z,1392.00
2019-01-23T09:20:08.596Z,1396.00
2019-01-23T09:21:08.584Z,1424.00
2019-01-23T09:22:08.545Z,1464.00
2019-01-23T09:23:08.579Z,1460.00
2019-01-23T09:24:08.467Z,1464.00
2019-01-23T09:25:08.437Z,1480.00
2019-01-23T09:26:08.416Z,1480.00
2019-01-23T09:27:08.396Z,1476.00
2019-01-23T09:28:08.353Z,1472.00
2019-01-23T09:29:08.374Z,1500.00
2019-01-23T09:30:08.350Z,1548.00
2019-01-23T09:31:08.265Z,1556.00
2019-01-23T09:32:08.311Z,1584.00
2019-01-23T09:33:08.251Z,1620.00
2019-01-23T09:34:08.182Z,1648.00
2019-01-23T09:36:31.430Z,1704.00
2019-01-23T09:37:31.134Z,1720.00
2019-01-23T09:38:31.108Z,1748.00
2019-01-23T09:39:31.196Z,1756.00
2019-01-23T09:40:31.075Z,1764.00
2019-01-23T09:41:31.030Z,1772.00
2019-01-23T09:42:30.996Z,1780.00
2019-01-23T09:43:30.985Z,1780.00
2019-01-23T09:44:30.964Z,1756.00
2019-01-23T09:45:30.916Z,1716.00
2019-01-23T09:46:30.880Z,1732.00
2019-01-23T09:47:30.854Z,1776.00
2019-01-23T09:48:30.837Z,1860.00
2019-01-23T09:49:30.801Z,1888.00
2019-01-23T09:50:30.776Z,1908.00
2019-01-23T09:51:30.742Z,1908.00
2019-01-23T09:52:30.716Z,1904.00
2019-01-23T09:53:30.691Z,1916.00
2019-01-23T09:54:30.713Z,1940.00
2019-01-23T09:55:30.657Z,1964.00
2019-01-23T09:56:30.647Z,2004.00
2019-01-23T09:57:30.600Z,2000.00
2019-01-23T09:58:30.563Z,1984.00
2019-01-23T09:59:30.546Z,1924.00
2019-01-23T10:00:31.791Z,1884.00
2019-01-23T10:01:30.516Z,1804.00
2019-01-23T10:02:30.434Z,1820.00
2019-01-23T10:03:30.407Z,1860.00
2019-01-23T10:04:30.405Z,1896.00
2019-01-23T10:05:30.348Z,1916.00
2019-01-23T10:06:30.365Z,1968.00
2019-01-23T10:07:30.310Z,1932.00
2019-01-23T10:08:30.268Z,1888.00
2019-01-23T10:09:30.242Z,1924.00
2019-01-23T10:10:30.238Z,1976.00
2019-01-23T10:11:30.267Z,1972.00
2019-01-23T10:12:30.174Z,2012.00
2019-01-23T10:13:30.148Z,2032.00
2019-01-23T10:14:30.138Z,2028.00
2019-01-23T10:15:30.142Z,2032.00
2019-01-23T10:16:30.082Z,2084.00
2019-01-23T10:17:30.020Z,2124.00
2019-01-23T10:18:30.000Z,2160.00
2019-01-23T10:19:29.998Z,2120.00
2019-01-23T10:20:29.967Z,2132.00
2019-01-23T10:21:29.921Z,2160.00
2019-01-23T10:22:29.910Z,2148.00
2019-01-23T10:23:29.889Z,2080.00
2019-01-23T10:24:35.695Z,2060.00
2019-01-23T10:25:29.857Z,2112.00
2019-01-23T10:26:29.788Z,2192.00
2019-01-23T10:27:29.751Z,2232.00
2019-01-23T10:28:29.737Z,2196.00
2019-01-23T10:29:29.719Z,2140.00
2019-01-23T10:30:29.687Z,2120.00
2019-01-23T10:31:29.678Z,2112.00
2019-01-23T10:32:29.653Z,2116.00
2019-01-23T10:33:29.604Z,2152.00
2019-01-23T10:34:29.578Z,2168.00
2019-01-23T10:35:29.532Z,2176.00
2019-01-23T10:36:29.523Z,2200.00
2019-01-23T10:37:29.486Z,2164.00
2019-01-23T10:38:29.467Z,2148.00
2019-01-23T10:39:29.447Z,2176.00
2019-01-23T10:40:29.414Z,2284.00
2019-01-23T10:41:29.391Z,2340.00
2019-01-23T10:42:29.354Z,2360.00
2019-01-23T10:43:29.347Z,2316.00
2019-01-23T10:44:29.292Z,2260.00
2019-01-23T10:45:29.259Z,2244.00
2019-01-23T10:46:29.239Z,2204.00
2019-01-23T10:47:29.238Z,2184.00
2019-01-23T10:48:29.192Z,2152.00
2019-01-23T10:49:29.153Z,2076.00
2019-01-23T10:50:29.159Z,1992.00
2019-01-23T10:51:29.142Z,1940.00
2019-01-23T10:52:29.072Z,1920.00
2019-01-23T10:53:29.050Z,1976.00
2019-01-23T10:54:29.044Z,1996.00
2019-01-23T10:55:29.027Z,1968.00
2019-01-23T10:56:28.995Z,1928.00
2019-01-23T10:57:28.979Z,1908.00
2019-01-23T10:58:28.929Z,1896.00
2019-01-23T10:59:28.886Z,2052.00
2019-01-23T11:00:28.859Z,2160.00
2019-01-23T11:01:28.877Z,2180.00
2019-01-23T11:02:28.839Z,2152.00
2019-01-23T11:03:28.781Z,2152.00
2019-01-23T11:04:28.761Z,2156.00
2019-01-23T11:05:28.728Z,2140.00
2019-01-23T11:06:28.758Z,2116.00
2019-01-23T11:07:28.704Z,2100.00
2019-01-23T11:08:28.702Z,2076.00
2019-01-23T11:09:28.671Z,2064.00
2019-01-23T11:10:28.608Z,2092.00
2019-01-23T11:11:28.578Z,2092.00
2019-01-23T11:12:28.597Z,2132.00
2019-01-23T11:13:28.542Z,2096.00
2019-01-23T11:14:28.522Z,2036.00
2019-01-23T11:15:28.469Z,2056.00
2019-01-23T11:16:28.444Z,2100.00
2019-01-23T11:18:51.550Z,2088.00
2019-01-23T11:19:51.498Z,2040.00
2019-01-23T11:20:51.444Z,1964.00
2019-01-23T11:21:51.409Z,1912.00
2019-01-23T11:22:51.421Z,1884.00
2019-01-23T11:23:51.301Z,1860.00
2019-01-23T11:24:51.306Z,1908.00
2019-01-23T11:25:51.300Z,1916.00
2019-01-23T11:26:51.260Z,1912.00
2019-01-23T11:27:51.236Z,1976.00
2019-01-23T11:28:51.203Z,2000.00
2019-01-23T11:29:51.189Z,2020.00
2019-01-23T11:30:51.156Z,2048.00
2019-01-23T11:31:51.090Z,2096.00
2019-01-23T11:32:51.140Z,2156.00
2019-01-23T11:33:51.051Z,2228.00
2019-01-23T11:34:51.023Z,2240.00
2019-01-23T11:35:51.012Z,2244.00
2019-01-23T11:36:50.963Z,2240.00
2019-01-23T11:37:50.945Z,2192.00
2019-01-23T11:38:50.905Z,2168.00
2019-01-23T11:39:50.917Z,2140.00
2019-01-23T11:40:50.874Z,2036.00
2019-01-23T11:41:50.854Z,1976.00
2019-01-23T11:42:50.807Z,1928.00
2019-01-23T11:43:50.830Z,1908.00
2019-01-23T11:44:50.785Z,1884.00
2019-01-23T11:45:50.741Z,1872.00
2019-01-23T11:46:50.709Z,1864.00
2019-01-23T11:47:50.674Z,1876.00
2019-01-23T11:48:50.715Z,1880.00
2019-01-23T11:49:50.637Z,1880.00
2019-01-23T11:50:50.650Z,1884.00
2019-01-23T11:51:50.611Z,1892.00
2019-01-23T11:52:50.573Z,1876.00
2019-01-23T11:53:50.525Z,1888.00
2019-01-23T11:54:50.521Z,1900.00
2019-01-23T11:55:50.482Z,1868.00
2019-01-23T11:56:50.440Z,1880.00
2019-01-23T11:57:50.428Z,2004.00
2019-01-23T11:58:50.373Z,2100.00
2019-01-23T12:01:13.453Z,2168.00
2019-01-23T12:02:13.683Z,2168.00
2019-01-23T12:03:13.322Z,2180.00
2019-01-23T12:04:13.376Z,2196.00
2019-01-23T12:05:13.298Z,2192.00
2019-01-23T12:06:13.251Z,2168.00
2019-01-23T12:07:13.234Z,2152.00
2019-01-23T12:08:13.193Z,2092.00
2019-01-23T12:09:13.190Z,2128.00
2019-01-23T12:10:13.154Z,2220.00
2019-01-23T12:11:13.114Z,2272.00
2019-01-23T12:12:13.069Z,2332.00
2019-01-23T12:13:13.066Z,2388.00
2019-01-23T12:14:13.026Z,2444.00
2019-01-23T12:15:13.050Z,2512.00
2019-01-23T12:16:12.983Z,2520.00
2019-01-23T12:17:12.944Z,2536.00
2019-01-23T12:18:12.929Z,2468.00
2019-01-23T12:19:12.888Z,2412.00
2019-01-23T12:20:12.862Z,2416.00
2019-01-23T12:21:12.871Z,2360.00
2019-01-23T12:22:12.813Z,2304.00
2019-01-23T12:23:12.813Z,2296.00
2019-01-23T12:24:12.760Z,2204.00
2019-01-23T12:25:12.736Z,2236.00
2019-01-23T12:26:12.715Z,2236.00
2019-01-23T12:27:12.676Z,2060.00
2019-01-23T12:28:12.643Z,1820.00
2019-01-23T12:29:12.635Z,1804.00
2019-01-23T12:30:12.623Z,1868.00
2019-01-23T12:31:12.572Z,1904.00
2019-01-23T12:32:12.544Z,1964.00
2019-01-23T12:33:12.530Z,2012.00
2019-01-23T12:34:12.514Z,2032.00
2019-01-23T12:35:12.470Z,2060.00
2019-01-23T12:36:12.453Z,1992.00
2019-01-23T12:37:12.424Z,1944.00
2019-01-23T12:38:13.038Z,1856.00
2019-01-23T12:39:12.363Z,1896.00
2019-01-23T12:40:12.809Z,2000.00
2019-01-23T12:41:12.332Z,2036.00
2019-01-23T12:42:12.291Z,2076.00
2019-01-23T12:43:12.269Z,2116.00
2019-01-23T12:44:12.224Z,2100.00
2019-01-23T12:45:12.191Z,2144.00
2019-01-23T12:46:12.169Z,2108.00
2019-01-23T12:47:12.174Z,2124.00
2019-01-23T12:48:12.173Z,2176.00
2019-01-23T12:50:35.310Z,2112.00
2019-01-23T12:51:35.247Z,2144.00
2019-01-23T12:52:35.091Z,2176.00
2019-01-23T12:53:35.092Z,2096.00
2019-01-23T12:54:35.069Z,2028.00
2019-01-23T12:55:35.040Z,2028.00
2019-01-23T12:56:34.985Z,2028.00
2019-01-23T12:57:34.955Z,2032.00
2019-01-23T12:58:34.930Z,2036.00
2019-01-23T13:01:10.030Z,2108.00
2019-01-23T13:01:57.881Z,2100.00
2019-01-23T13:02:57.858Z,2064.00
2019-01-23T13:03:57.913Z,2072.00
2019-01-23T13:04:57.798Z,2056.00
2019-01-23T13:05:57.932Z,1992.00
2019-01-23T13:06:57.782Z,1496.00
2019-01-23T13:07:57.941Z,1760.00
2019-01-23T13:08:57.790Z,2036.00
2019-01-23T13:09:57.746Z,2008.00
2019-01-23T13:10:57.651Z,1956.00
2019-01-23T13:11:57.810Z,1960.00
2019-01-23T13:12:57.884Z,1948.00
2019-01-23T13:13:57.557Z,1800.00
2019-01-23T13:14:57.714Z,1664.00
2019-01-23T13:15:57.512Z,1476.00
2019-01-23T13:16:57.480Z,1288.00
2019-01-23T13:17:57.477Z,1320.00
2019-01-23T13:20:20.566Z,1744.00
2019-01-23T13:21:20.548Z,1944.00
2019-01-23T13:22:20.498Z,2068.00
2019-01-23T13:23:20.495Z,2120.00
2019-01-23T13:24:20.484Z,1940.00
2019-01-23T13:25:20.435Z,1724.00
2019-01-23T13:26:20.427Z,1740.00
2019-01-23T13:27:20.394Z,1940.00
2019-01-23T13:28:20.365Z,1876.00
2019-01-23T13:29:20.302Z,1784.00
2019-01-23T13:30:20.280Z,1740.00
2019-01-23T13:31:20.325Z,1696.00
2019-01-23T13:32:20.250Z,1564.00
2019-01-23T13:33:20.271Z,1300.00
2019-01-23T13:34:20.196Z,1540.00
2019-01-23T13:35:20.150Z,1692.00
2019-01-23T13:36:20.136Z,1788.00
2019-01-23T13:37:20.107Z,1732.00
2019-01-23T13:38:20.124Z,1460.00
2019-01-23T13:39:20.107Z,1316.00
2019-01-23T13:40:20.008Z,1340.00
2019-01-23T13:41:20.005Z,1428.00
2019-01-23T13:42:19.952Z,1460.00
2019-01-23T13:43:19.971Z,1484.00
2019-01-23T13:44:19.930Z,1456.00
2019-01-23T13:45:19.883Z,1372.00
2019-01-23T13:46:19.854Z,1264.00
2019-01-23T13:47:19.819Z,1244.00
2019-01-23T13:48:19.807Z,1300.00
2019-01-23T13:50:42.860Z,1296.00
2019-01-23T13:51:42.798Z,1160.00
2019-01-23T13:52:42.814Z,1140.00
2019-01-23T13:53:42.708Z,1168.00
2019-01-23T13:54:42.812Z,1204.00
2019-01-23T13:55:42.651Z,1212.00